sensor_id;sensor_type;location;lat;lon;timestamp;temperature;humidity
14934;DHT22;7560;51.364;12.384;2023-07-13T00:03:57;23.10;88.00
14934;DHT22;7560;51.364;12.384;2023-07-13T00:08:59;22.90;88.50
14934;DHT22;7560;51.364;12.384;2023-07-13T00:14:01;22.70;89.40
14934;DHT22;7560;51.364;12.384;2023-07-13T00:19:05;22.70;89.90
14934;DHT22;7560;51.364;12.384;2023-07-13T00:24:08;22.80;89.60
14934;DHT22;7560;51.364;12.384;2023-07-13T00:29:14;22.90;88.70
14934;DHT22;7560;51.364;12.384;2023-07-13T00:34:17;23.00;88.30
14934;DHT22;7560;51.364;12.384;2023-07-13T00:39:19;23.00;88.20
14934;DHT22;7560;51.364;12.384;2023-07-13T00:44:22;23.00;87.80
14934;DHT22;7560;51.364;12.384;2023-07-13T00:49:28;23.00;87.40
14934;DHT22;7560;51.364;12.384;2023-07-13T00:54:38;22.90;88.80
14934;DHT22;7560;51.364;12.384;2023-07-13T00:59:45;22.60;87.40
14934;DHT22;7560;51.364;12.384;2023-07-13T01:04:47;22.30;88.40
14934;DHT22;7560;51.364;12.384;2023-07-13T01:09:49;22.10;90.00
14934;DHT22;7560;51.364;12.384;2023-07-13T01:15:00;22.10;89.30
14934;DHT22;7560;51.364;12.384;2023-07-13T01:20:02;22.00;90.00
14934;DHT22;7560;51.364;12.384;2023-07-13T01:25:06;21.80;90.60
14934;DHT22;7560;51.364;12.384;2023-07-13T01:30:10;21.60;91.00
14934;DHT22;7560;51.364;12.384;2023-07-13T01:35:12;21.30;91.70
14934;DHT22;7560;51.364;12.384;2023-07-13T01:40:14;21.20;92.00
14934;DHT22;7560;51.364;12.384;2023-07-13T01:45:16;21.20;92.20
14934;DHT22;7560;51.364;12.384;2023-07-13T01:50:18;21.30;92.20
14934;DHT22;7560;51.364;12.384;2023-07-13T01:55:20;21.10;92.40
14934;DHT22;7560;51.364;12.384;2023-07-13T02:00:22;21.10;92.50
14934;DHT22;7560;51.364;12.384;2023-07-13T02:05:24;21.10;92.60
14934;DHT22;7560;51.364;12.384;2023-07-13T02:10:26;21.00;92.90
14934;DHT22;7560;51.364;12.384;2023-07-13T02:15:30;21.10;92.80
14934;DHT22;7560;51.364;12.384;2023-07-13T02:20:31;20.80;93.20
14934;DHT22;7560;51.364;12.384;2023-07-13T02:25:33;20.90;93.30
14934;DHT22;7560;51.364;12.384;2023-07-13T02:30:35;20.70;93.40
14934;DHT22;7560;51.364;12.384;2023-07-13T02:35:37;20.70;93.70
14934;DHT22;7560;51.364;12.384;2023-07-13T02:40:39;20.70;93.90
14934;DHT22;7560;51.364;12.384;2023-07-13T02:45:44;20.50;94.20
14934;DHT22;7560;51.364;12.384;2023-07-13T02:50:45;20.00;95.10
14934;DHT22;7560;51.364;12.384;2023-07-13T02:55:47;19.80;95.60
14934;DHT22;7560;51.364;12.384;2023-07-13T03:00:49;19.60;96.30
14934;DHT22;7560;51.364;12.384;2023-07-13T03:05:59;19.40;96.80
14934;DHT22;7560;51.364;12.384;2023-07-13T03:11:03;19.30;97.10
14934;DHT22;7560;51.364;12.384;2023-07-13T03:16:07;19.30;97.40
14934;DHT22;7560;51.364;12.384;2023-07-13T03:21:09;19.40;97.40
14934;DHT22;7560;51.364;12.384;2023-07-13T03:26:16;19.30;97.90
14934;DHT22;7560;51.364;12.384;2023-07-13T03:31:20;19.00;98.50
14934;DHT22;7560;51.364;12.384;2023-07-13T03:36:25;18.90;99.00
14934;DHT22;7560;51.364;12.384;2023-07-13T03:41:27;18.90;99.40
14934;DHT22;7560;51.364;12.384;2023-07-13T03:46:29;18.90;99.80
14934;DHT22;7560;51.364;12.384;2023-07-13T03:51:31;18.80;99.90
14934;DHT22;7560;51.364;12.384;2023-07-13T03:56:33;18.80;99.90
14934;DHT22;7560;51.364;12.384;2023-07-13T04:01:35;19.00;99.90
14934;DHT22;7560;51.364;12.384;2023-07-13T04:06:37;19.00;99.90
14934;DHT22;7560;51.364;12.384;2023-07-13T04:11:39;18.90;99.90
14934;DHT22;7560;51.364;12.384;2023-07-13T04:16:41;18.90;99.90
14934;DHT22;7560;51.364;12.384;2023-07-13T04:21:43;18.80;99.90
14934;DHT22;7560;51.364;12.384;2023-07-13T04:26:45;18.70;99.90
14934;DHT22;7560;51.364;12.384;2023-07-13T04:31:47;18.80;99.90
14934;DHT22;7560;51.364;12.384;2023-07-13T04:36:49;18.80;99.90
14934;DHT22;7560;51.364;12.384;2023-07-13T04:41:51;18.90;99.90
14934;DHT22;7560;51.364;12.384;2023-07-13T04:46:53;18.80;99.90
14934;DHT22;7560;51.364;12.384;2023-07-13T04:51:54;19.00;99.90
14934;DHT22;7560;51.364;12.384;2023-07-13T04:56:56;19.00;99.90
14934;DHT22;7560;51.364;12.384;2023-07-13T05:01:58;19.10;99.90
14934;DHT22;7560;51.364;12.384;2023-07-13T05:07:00;19.30;99.90
14934;DHT22;7560;51.364;12.384;2023-07-13T05:12:01;19.40;99.90
14934;DHT22;7560;51.364;12.384;2023-07-13T05:17:04;19.40;99.90
14934;DHT22;7560;51.364;12.384;2023-07-13T05:22:06;19.60;99.90
14934;DHT22;7560;51.364;12.384;2023-07-13T05:27:07;19.80;99.90
14934;DHT22;7560;51.364;12.384;2023-07-13T05:32:09;20.00;99.90
14934;DHT22;7560;51.364;12.384;2023-07-13T05:37:11;20.20;99.90
14934;DHT22;7560;51.364;12.384;2023-07-13T05:42:13;20.40;99.90
14934;DHT22;7560;51.364;12.384;2023-07-13T05:47:15;20.60;99.90
14934;DHT22;7560;51.364;12.384;2023-07-13T05:52:17;20.70;99.90
14934;DHT22;7560;51.364;12.384;2023-07-13T05:57:19;20.80;99.90
14934;DHT22;7560;51.364;12.384;2023-07-13T06:02:20;20.80;99.90
14934;DHT22;7560;51.364;12.384;2023-07-13T06:07:22;20.90;99.90
14934;DHT22;7560;51.364;12.384;2023-07-13T06:12:24;21.20;99.60
14934;DHT22;7560;51.364;12.384;2023-07-13T06:17:26;21.10;99.40
14934;DHT22;7560;51.364;12.384;2023-07-13T06:22:28;21.20;98.70
14934;DHT22;7560;51.364;12.384;2023-07-13T06:27:30;21.30;98.70
14934;DHT22;7560;51.364;12.384;2023-07-13T06:32:32;21.40;98.70
14934;DHT22;7560;51.364;12.384;2023-07-13T06:37:33;21.50;98.80
14934;DHT22;7560;51.364;12.384;2023-07-13T06:42:35;21.60;99.30
14934;DHT22;7560;51.364;12.384;2023-07-13T06:47:37;21.60;98.60
14934;DHT22;7560;51.364;12.384;2023-07-13T06:52:39;21.70;98.10
14934;DHT22;7560;51.364;12.384;2023-07-13T06:57:41;21.80;96.60
14934;DHT22;7560;51.364;12.384;2023-07-13T07:02:42;22.00;96.80
14934;DHT22;7560;51.364;12.384;2023-07-13T07:07:44;22.60;95.60
14934;DHT22;7560;51.364;12.384;2023-07-13T07:12:46;22.70;95.70
14934;DHT22;7560;51.364;12.384;2023-07-13T07:17:48;22.30;95.80
14934;DHT22;7560;51.364;12.384;2023-07-13T07:22:50;22.60;95.40
14934;DHT22;7560;51.364;12.384;2023-07-13T07:27:52;22.50;96.00
14934;DHT22;7560;51.364;12.384;2023-07-13T07:32:56;22.30;96.30
14934;DHT22;7560;51.364;12.384;2023-07-13T07:37:58;22.40;96.00
14934;DHT22;7560;51.364;12.384;2023-07-13T07:43:00;22.50;95.10
14934;DHT22;7560;51.364;12.384;2023-07-13T07:48:02;22.60;95.40
14934;DHT22;7560;51.364;12.384;2023-07-13T07:53:04;23.00;93.80
14934;DHT22;7560;51.364;12.384;2023-07-13T07:58:08;22.80;93.20
14934;DHT22;7560;51.364;12.384;2023-07-13T08:03:30;22.80;93.20
14934;DHT22;7560;51.364;12.384;2023-07-13T08:08:52;23.00;92.60
14934;DHT22;7560;51.364;12.384;2023-07-13T08:13:54;23.40;91.80
14934;DHT22;7560;51.364;12.384;2023-07-13T08:18:56;23.40;91.50
14934;DHT22;7560;51.364;12.384;2023-07-13T08:23:58;23.50;91.30
14934;DHT22;7560;51.364;12.384;2023-07-13T08:29:00;23.50;91.10
14934;DHT22;7560;51.364;12.384;2023-07-13T08:34:02;23.10;91.70
14934;DHT22;7560;51.364;12.384;2023-07-13T08:39:04;23.30;91.50
14934;DHT22;7560;51.364;12.384;2023-07-13T08:44:23;23.40;90.90
14934;DHT22;7560;51.364;12.384;2023-07-13T08:49:27;23.40;90.70
14934;DHT22;7560;51.364;12.384;2023-07-13T08:54:41;23.60;90.30
14934;DHT22;7560;51.364;12.384;2023-07-13T08:59:45;23.50;89.60
14934;DHT22;7560;51.364;12.384;2023-07-13T09:05:09;23.60;90.00
14934;DHT22;7560;51.364;12.384;2023-07-13T09:10:46;24.30;88.50
14934;DHT22;7560;51.364;12.384;2023-07-13T09:15:51;24.50;87.00
14934;DHT22;7560;51.364;12.384;2023-07-13T09:20:57;24.30;87.80
14934;DHT22;7560;51.364;12.384;2023-07-13T09:26:10;24.40;88.30
14934;DHT22;7560;51.364;12.384;2023-07-13T09:31:19;24.10;88.20
14934;DHT22;7560;51.364;12.384;2023-07-13T09:36:26;24.50;86.50
14934;DHT22;7560;51.364;12.384;2023-07-13T09:41:53;25.20;85.50
14934;DHT22;7560;51.364;12.384;2023-07-13T09:46:57;25.80;84.00
14934;DHT22;7560;51.364;12.384;2023-07-13T09:52:05;25.60;83.30
14934;DHT22;7560;51.364;12.384;2023-07-13T09:57:19;25.70;83.60
14934;DHT22;7560;51.364;12.384;2023-07-13T10:02:36;25.60;83.80
14934;DHT22;7560;51.364;12.384;2023-07-13T10:07:40;26.30;81.50
14934;DHT22;7560;51.364;12.384;2023-07-13T10:12:46;25.40;83.70
14934;DHT22;7560;51.364;12.384;2023-07-13T10:17:50;24.80;84.80
14934;DHT22;7560;51.364;12.384;2023-07-13T10:22:59;24.90;84.00
14934;DHT22;7560;51.364;12.384;2023-07-13T10:28:33;24.60;85.50
14934;DHT22;7560;51.364;12.384;2023-07-13T10:33:36;24.70;85.50
14934;DHT22;7560;51.364;12.384;2023-07-13T10:38:38;24.80;85.50
14934;DHT22;7560;51.364;12.384;2023-07-13T10:43:46;25.10;85.50
14934;DHT22;7560;51.364;12.384;2023-07-13T10:48:52;24.70;86.00
14934;DHT22;7560;51.364;12.384;2023-07-13T10:54:20;25.00;85.60
14934;DHT22;7560;51.364;12.384;2023-07-13T10:59:25;25.20;82.70
14934;DHT22;7560;51.364;12.384;2023-07-13T11:04:29;25.80;81.90
14934;DHT22;7560;51.364;12.384;2023-07-13T11:09:41;26.40;80.10
14934;DHT22;7560;51.364;12.384;2023-07-13T11:25:29;27.10;74.50
14934;DHT22;7560;51.364;12.384;2023-07-13T11:30:40;26.50;75.60
14934;DHT22;7560;51.364;12.384;2023-07-13T11:41:17;26.10;75.60
14934;DHT22;7560;51.364;12.384;2023-07-13T11:46:26;26.40;75.20
14934;DHT22;7560;51.364;12.384;2023-07-13T11:51:30;26.80;74.00
14934;DHT22;7560;51.364;12.384;2023-07-13T11:56:33;26.50;76.70
14934;DHT22;7560;51.364;12.384;2023-07-13T12:01:36;25.80;77.50
14934;DHT22;7560;51.364;12.384;2023-07-13T12:06:44;26.00;77.10
14934;DHT22;7560;51.364;12.384;2023-07-13T12:11:48;26.00;73.30
14934;DHT22;7560;51.364;12.384;2023-07-13T12:16:49;26.20;71.50
14934;DHT22;7560;51.364;12.384;2023-07-13T12:21:54;26.30;73.60
14934;DHT22;7560;51.364;12.384;2023-07-13T12:27:04;26.40;72.00
14934;DHT22;7560;51.364;12.384;2023-07-13T12:32:09;26.40;71.10
14934;DHT22;7560;51.364;12.384;2023-07-13T12:37:12;26.50;72.00
14934;DHT22;7560;51.364;12.384;2023-07-13T12:42:27;26.40;72.10
14934;DHT22;7560;51.364;12.384;2023-07-13T12:47:30;26.60;71.10
14934;DHT22;7560;51.364;12.384;2023-07-13T12:52:34;26.40;71.90
14934;DHT22;7560;51.364;12.384;2023-07-13T12:57:41;26.60;72.30
14934;DHT22;7560;51.364;12.384;2023-07-13T13:02:44;26.60;72.00
14934;DHT22;7560;51.364;12.384;2023-07-13T13:07:47;26.60;71.40
14934;DHT22;7560;51.364;12.384;2023-07-13T13:12:49;27.00;71.70
14934;DHT22;7560;51.364;12.384;2023-07-13T13:17:51;27.70;69.90
14934;DHT22;7560;51.364;12.384;2023-07-13T13:22:53;26.70;70.40
14934;DHT22;7560;51.364;12.384;2023-07-13T13:27:55;27.30;69.30
14934;DHT22;7560;51.364;12.384;2023-07-13T13:32:57;27.60;67.80
14934;DHT22;7560;51.364;12.384;2023-07-13T13:37:59;28.10;67.50
14934;DHT22;7560;51.364;12.384;2023-07-13T13:43:01;27.90;68.80
14934;DHT22;7560;51.364;12.384;2023-07-13T13:48:03;27.40;70.60
14934;DHT22;7560;51.364;12.384;2023-07-13T13:53:11;27.70;68.70
14934;DHT22;7560;51.364;12.384;2023-07-13T13:58:14;27.30;70.90
14934;DHT22;7560;51.364;12.384;2023-07-13T14:03:18;27.00;71.80
14934;DHT22;7560;51.364;12.384;2023-07-13T14:08:21;27.90;70.30
14934;DHT22;7560;51.364;12.384;2023-07-13T14:13:29;27.00;70.70
14934;DHT22;7560;51.364;12.384;2023-07-13T14:18:33;27.60;70.30
14934;DHT22;7560;51.364;12.384;2023-07-13T14:23:35;28.20;68.80
14934;DHT22;7560;51.364;12.384;2023-07-13T14:28:44;27.80;68.70
14934;DHT22;7560;51.364;12.384;2023-07-13T14:33:46;28.10;68.50
14934;DHT22;7560;51.364;12.384;2023-07-13T14:38:49;27.40;70.40
14934;DHT22;7560;51.364;12.384;2023-07-13T14:43:51;28.50;68.10
14934;DHT22;7560;51.364;12.384;2023-07-13T14:49:02;27.60;68.50
14934;DHT22;7560;51.364;12.384;2023-07-13T14:54:07;28.50;67.10
14934;DHT22;7560;51.364;12.384;2023-07-13T14:59:10;28.90;66.60
14934;DHT22;7560;51.364;12.384;2023-07-13T15:04:12;28.60;66.90
14934;DHT22;7560;51.364;12.384;2023-07-13T15:09:14;29.10;65.80
14934;DHT22;7560;51.364;12.384;2023-07-13T15:14:16;27.60;67.00
14934;DHT22;7560;51.364;12.384;2023-07-13T15:19:18;27.20;68.30
14934;DHT22;7560;51.364;12.384;2023-07-13T15:24:21;27.50;68.30
14934;DHT22;7560;51.364;12.384;2023-07-13T15:29:23;28.30;66.40
14934;DHT22;7560;51.364;12.384;2023-07-13T15:34:26;29.50;64.70
14934;DHT22;7560;51.364;12.384;2023-07-13T15:39:28;28.90;65.90
14934;DHT22;7560;51.364;12.384;2023-07-13T15:44:32;29.30;65.90
14934;DHT22;7560;51.364;12.384;2023-07-13T15:49:34;28.70;66.50
14934;DHT22;7560;51.364;12.384;2023-07-13T15:54:38;28.30;67.50
14934;DHT22;7560;51.364;12.384;2023-07-13T15:59:40;29.30;66.10
14934;DHT22;7560;51.364;12.384;2023-07-13T16:04:44;28.60;66.90
14934;DHT22;7560;51.364;12.384;2023-07-13T16:09:46;28.80;67.00
14934;DHT22;7560;51.364;12.384;2023-07-13T16:14:48;29.20;65.40
14934;DHT22;7560;51.364;12.384;2023-07-13T16:19:51;28.30;66.70
14934;DHT22;7560;51.364;12.384;2023-07-13T16:24:52;27.90;68.10
14934;DHT22;7560;51.364;12.384;2023-07-13T16:29:57;28.00;68.20
14934;DHT22;7560;51.364;12.384;2023-07-13T16:35:00;28.30;68.70
14934;DHT22;7560;51.364;12.384;2023-07-13T16:40:02;27.80;69.50
14934;DHT22;7560;51.364;12.384;2023-07-13T16:45:11;27.90;69.70
14934;DHT22;7560;51.364;12.384;2023-07-13T16:50:16;28.30;69.20
14934;DHT22;7560;51.364;12.384;2023-07-13T16:55:20;27.90;69.90
14934;DHT22;7560;51.364;12.384;2023-07-13T17:00:32;27.20;70.90
14934;DHT22;7560;51.364;12.384;2023-07-13T17:05:43;26.70;72.00
14934;DHT22;7560;51.364;12.384;2023-07-13T17:10:45;26.70;72.00
14934;DHT22;7560;51.364;12.384;2023-07-13T17:15:49;26.50;72.80
14934;DHT22;7560;51.364;12.384;2023-07-13T17:21:00;26.30;73.00
14934;DHT22;7560;51.364;12.384;2023-07-13T17:26:03;26.00;73.60
14934;DHT22;7560;51.364;12.384;2023-07-13T17:31:05;25.80;73.90
14934;DHT22;7560;51.364;12.384;2023-07-13T17:36:11;26.50;72.80
14934;DHT22;7560;51.364;12.384;2023-07-13T17:41:14;26.90;72.00
14934;DHT22;7560;51.364;12.384;2023-07-13T17:46:20;27.40;71.90
14934;DHT22;7560;51.364;12.384;2023-07-13T17:51:23;26.30;74.30
14934;DHT22;7560;51.364;12.384;2023-07-13T17:56:29;26.00;74.90
14934;DHT22;7560;51.364;12.384;2023-07-13T18:01:34;25.80;75.70
14934;DHT22;7560;51.364;12.384;2023-07-13T18:06:41;25.80;75.70
14934;DHT22;7560;51.364;12.384;2023-07-13T18:11:46;25.60;76.00
14934;DHT22;7560;51.364;12.384;2023-07-13T18:16:53;25.40;76.60
14934;DHT22;7560;51.364;12.384;2023-07-13T18:21:56;25.40;77.00
14934;DHT22;7560;51.364;12.384;2023-07-13T18:26:58;25.10;77.80
14934;DHT22;7560;51.364;12.384;2023-07-13T18:32:00;25.10;78.00
14934;DHT22;7560;51.364;12.384;2023-07-13T18:37:15;24.80;78.70
14934;DHT22;7560;51.364;12.384;2023-07-13T18:42:21;24.40;79.60
14934;DHT22;7560;51.364;12.384;2023-07-13T18:47:24;24.60;79.50
14934;DHT22;7560;51.364;12.384;2023-07-13T18:52:26;24.40;80.00
14934;DHT22;7560;51.364;12.384;2023-07-13T18:57:28;22.90;90.00
14934;DHT22;7560;51.364;12.384;2023-07-13T19:02:30;22.30;91.50
14934;DHT22;7560;51.364;12.384;2023-07-13T19:07:32;21.70;92.90
14934;DHT22;7560;51.364;12.384;2023-07-13T19:12:34;21.40;93.40
14934;DHT22;7560;51.364;12.384;2023-07-13T19:17:37;21.30;93.70
14934;DHT22;7560;51.364;12.384;2023-07-13T19:22:40;21.30;94.20
14934;DHT22;7560;51.364;12.384;2023-07-13T19:27:42;21.00;94.90
14934;DHT22;7560;51.364;12.384;2023-07-13T19:32:45;21.00;95.20
14934;DHT22;7560;51.364;12.384;2023-07-13T19:37:48;20.90;95.60
14934;DHT22;7560;51.364;12.384;2023-07-13T19:42:50;20.80;96.10
14934;DHT22;7560;51.364;12.384;2023-07-13T19:47:51;20.70;96.40
14934;DHT22;7560;51.364;12.384;2023-07-13T19:52:54;20.70;96.50
14934;DHT22;7560;51.364;12.384;2023-07-13T19:57:59;20.70;96.80
14934;DHT22;7560;51.364;12.384;2023-07-13T20:03:01;20.60;97.20
14934;DHT22;7560;51.364;12.384;2023-07-13T20:08:10;20.60;97.40
14934;DHT22;7560;51.364;12.384;2023-07-13T20:13:13;20.50;97.50
14934;DHT22;7560;51.364;12.384;2023-07-13T20:18:16;20.40;97.30
14934;DHT22;7560;51.364;12.384;2023-07-13T20:23:21;20.30;97.50
14934;DHT22;7560;51.364;12.384;2023-07-13T20:28:27;20.10;97.70
14934;DHT22;7560;51.364;12.384;2023-07-13T20:33:30;20.00;98.10
14934;DHT22;7560;51.364;12.384;2023-07-13T20:38:32;20.00;98.20
14934;DHT22;7560;51.364;12.384;2023-07-13T20:43:34;20.00;98.30
14934;DHT22;7560;51.364;12.384;2023-07-13T20:48:40;19.90;98.40
14934;DHT22;7560;51.364;12.384;2023-07-13T20:53:46;19.90;98.60
14934;DHT22;7560;51.364;12.384;2023-07-13T20:58:48;19.70;98.90
14934;DHT22;7560;51.364;12.384;2023-07-13T21:03:52;19.70;99.20
14934;DHT22;7560;51.364;12.384;2023-07-13T21:08:55;19.60;99.60
14934;DHT22;7560;51.364;12.384;2023-07-13T21:13:56;19.70;99.60
14934;DHT22;7560;51.364;12.384;2023-07-13T21:18:58;19.70;99.70
14934;DHT22;7560;51.364;12.384;2023-07-13T21:24:00;19.60;99.90
14934;DHT22;7560;51.364;12.384;2023-07-13T21:29:02;19.60;99.90
14934;DHT22;7560;51.364;12.384;2023-07-13T21:34:13;19.50;99.90
14934;DHT22;7560;51.364;12.384;2023-07-13T21:39:18;19.40;99.90
14934;DHT22;7560;51.364;12.384;2023-07-13T21:44:26;19.40;99.90
14934;DHT22;7560;51.364;12.384;2023-07-13T21:49:28;19.30;99.90
14934;DHT22;7560;51.364;12.384;2023-07-13T21:54:29;19.20;99.90
14934;DHT22;7560;51.364;12.384;2023-07-13T21:59:31;19.20;99.90
14934;DHT22;7560;51.364;12.384;2023-07-13T22:04:34;19.20;99.90
14934;DHT22;7560;51.364;12.384;2023-07-13T22:09:35;19.30;99.90
14934;DHT22;7560;51.364;12.384;2023-07-13T22:14:37;19.30;99.90
14934;DHT22;7560;51.364;12.384;2023-07-13T22:19:39;19.20;99.90
14934;DHT22;7560;51.364;12.384;2023-07-13T22:24:40;19.20;99.90
14934;DHT22;7560;51.364;12.384;2023-07-13T22:29:42;19.20;99.90
14934;DHT22;7560;51.364;12.384;2023-07-13T22:34:44;19.10;99.90
14934;DHT22;7560;51.364;12.384;2023-07-13T22:39:46;19.00;99.90
14934;DHT22;7560;51.364;12.384;2023-07-13T22:44:47;18.90;99.90
14934;DHT22;7560;51.364;12.384;2023-07-13T22:49:49;19.00;99.90
14934;DHT22;7560;51.364;12.384;2023-07-13T22:54:51;18.90;99.90
14934;DHT22;7560;51.364;12.384;2023-07-13T22:59:53;18.90;99.90
14934;DHT22;7560;51.364;12.384;2023-07-13T23:04:55;18.80;99.90
14934;DHT22;7560;51.364;12.384;2023-07-13T23:09:57;18.80;99.90
14934;DHT22;7560;51.364;12.384;2023-07-13T23:15:13;18.80;99.90
14934;DHT22;7560;51.364;12.384;2023-07-13T23:20:30;18.70;99.90
14934;DHT22;7560;51.364;12.384;2023-07-13T23:25:32;18.70;99.90
14934;DHT22;7560;51.364;12.384;2023-07-13T23:30:35;18.60;99.90
14934;DHT22;7560;51.364;12.384;2023-07-13T23:35:37;18.60;99.90
14934;DHT22;7560;51.364;12.384;2023-07-13T23:40:39;18.60;99.90
14934;DHT22;7560;51.364;12.384;2023-07-13T23:45:41;18.50;99.90
14934;DHT22;7560;51.364;12.384;2023-07-13T23:50:43;18.50;99.90
14934;DHT22;7560;51.364;12.384;2023-07-13T23:55:45;18.50;99.90
